createdAt,value
2018-11-11T00:53:08.999Z,6.70
2018-11-11T00:55:38.220Z,6.60
2018-11-11T00:58:06.720Z,6.60
2018-11-11T01:00:35.970Z,6.60
2018-11-11T01:03:05.019Z,6.60
2018-11-11T01:05:33.410Z,6.60
2018-11-11T01:08:02.000Z,6.60
2018-11-11T01:10:30.712Z,6.60
2018-11-11T01:12:59.110Z,6.60
2018-11-11T01:15:27.541Z,6.60
2018-11-11T01:17:55.951Z,6.60
2018-11-11T01:20:24.775Z,6.70
2018-11-11T01:22:53.481Z,6.70
2018-11-11T01:25:21.905Z,6.70
2018-11-11T01:27:50.533Z,6.70
2018-11-11T01:30:18.908Z,6.70
2018-11-11T01:32:47.621Z,6.70
2018-11-11T01:35:16.929Z,6.70
2018-11-11T01:37:46.248Z,6.80
2018-11-11T01:40:14.954Z,6.70
2018-11-11T01:42:43.363Z,6.70
2018-11-11T01:45:14.991Z,6.80
2018-11-11T01:47:43.854Z,6.80
2018-11-11T01:50:13.037Z,6.80
2018-11-11T01:52:42.038Z,6.70
2018-11-11T01:55:11.840Z,6.70
2018-11-11T01:57:40.941Z,6.70
2018-11-11T02:00:12.411Z,6.70
2018-11-11T02:02:41.709Z,6.60
2018-11-11T02:05:11.387Z,6.60
2018-11-11T02:07:40.468Z,6.60
2018-11-11T02:10:10.196Z,6.60
2018-11-11T02:12:40.656Z,6.60
2018-11-11T02:15:10.230Z,6.60
2018-11-11T02:17:39.061Z,6.60
2018-11-11T02:20:10.081Z,6.60
2018-11-11T02:22:38.477Z,6.70
2018-11-11T02:25:07.742Z,6.60
2018-11-11T02:27:36.231Z,6.60
2018-11-11T02:30:06.146Z,6.70
2018-11-11T02:32:34.520Z,6.70
2018-11-11T02:35:02.909Z,6.70
2018-11-11T02:37:32.222Z,6.70
2018-11-11T02:40:00.579Z,6.70
2018-11-11T02:42:28.956Z,6.70
2018-11-11T02:44:57.611Z,6.80
2018-11-11T02:47:26.648Z,6.80
2018-11-11T02:49:55.034Z,6.80
2018-11-11T02:52:23.994Z,6.80
2018-11-11T02:54:52.863Z,6.80
2018-11-11T02:57:21.245Z,6.90
2018-11-11T02:59:49.772Z,6.80
2018-11-11T03:02:18.192Z,6.80
2018-11-11T03:04:46.579Z,6.80
2018-11-11T03:07:14.958Z,6.80
2018-11-11T03:09:43.599Z,6.80
2018-11-11T03:12:12.265Z,6.80
2018-11-11T03:14:40.672Z,6.80
2018-11-11T03:17:09.050Z,6.80
2018-11-11T03:19:37.455Z,6.80
2018-11-11T03:22:06.137Z,6.80
2018-11-11T03:24:34.547Z,6.70
2018-11-11T03:27:02.901Z,6.80
2018-11-11T03:29:31.267Z,6.80
2018-11-11T03:31:59.958Z,6.80
2018-11-11T03:34:28.329Z,6.70
2018-11-11T03:36:56.983Z,6.80
2018-11-11T03:39:25.549Z,6.80
2018-11-11T03:41:53.952Z,6.80
2018-11-11T03:44:22.707Z,6.80
2018-11-11T03:46:59.345Z,6.80
2018-11-11T03:49:27.929Z,6.80
2018-11-11T03:51:56.297Z,6.80
2018-11-11T03:54:24.683Z,6.80
2018-11-11T03:56:53.061Z,6.80
2018-11-11T03:59:21.955Z,6.80
2018-11-11T04:01:50.861Z,6.80
2018-11-11T04:04:19.589Z,6.80
2018-11-11T04:06:48.225Z,6.80
2018-11-11T04:09:16.636Z,6.80
2018-11-11T04:11:45.005Z,6.80
2018-11-11T04:14:13.400Z,6.80
2018-11-11T04:16:41.793Z,6.80
2018-11-11T04:19:10.378Z,6.80
2018-11-11T04:21:39.208Z,6.80
2018-11-11T04:24:08.515Z,6.80
2018-11-11T04:26:37.124Z,6.80
2018-11-11T04:29:05.530Z,6.90
2018-11-11T04:31:34.185Z,6.80
2018-11-11T04:34:02.798Z,6.80
2018-11-11T04:36:31.165Z,6.80
2018-11-11T04:38:59.556Z,6.80
2018-11-11T04:41:28.375Z,6.80
2018-11-11T04:43:56.768Z,6.80
2018-11-11T04:46:25.643Z,6.90
2018-11-11T04:48:54.062Z,6.90
2018-11-11T04:51:22.754Z,6.90
2018-11-11T04:53:51.437Z,6.90
2018-11-11T04:56:19.840Z,6.90
2018-11-11T04:58:48.784Z,6.90
2018-11-11T05:01:17.236Z,6.90
2018-11-11T05:03:45.899Z,6.90
2018-11-11T05:06:14.274Z,6.90
2018-11-11T05:08:44.062Z,6.90
2018-11-11T05:11:12.568Z,7.00
2018-11-11T05:13:40.964Z,6.90
2018-11-11T05:16:09.565Z,6.80
2018-11-11T05:18:38.925Z,6.80
2018-11-11T05:21:07.319Z,6.80
2018-11-11T05:23:35.746Z,6.80
2018-11-11T05:26:04.334Z,6.80
2018-11-11T05:28:32.751Z,6.80
2018-11-11T05:31:01.233Z,6.80
2018-11-11T05:33:29.830Z,6.80
2018-11-11T05:35:58.165Z,6.80
2018-11-11T05:38:26.563Z,6.80
2018-11-11T05:40:54.978Z,6.70
2018-11-11T05:43:23.641Z,6.70
2018-11-11T05:45:52.296Z,6.70
2018-11-11T05:48:20.702Z,6.70
2018-11-11T05:50:49.368Z,6.70
2018-11-11T05:53:18.072Z,6.60
2018-11-11T05:55:46.479Z,6.60
2018-11-11T05:58:15.187Z,6.60
2018-11-11T06:00:44.093Z,6.70
2018-11-11T06:03:12.503Z,6.70
2018-11-11T06:05:40.883Z,6.60
2018-11-11T06:08:09.271Z,6.60
2018-11-11T06:10:38.428Z,6.70
2018-11-11T06:13:07.200Z,6.70
2018-11-11T06:15:35.913Z,6.70
2018-11-11T06:18:04.873Z,6.70
2018-11-11T06:20:33.592Z,6.70
2018-11-11T06:23:02.573Z,6.70
2018-11-11T06:25:30.930Z,6.60
2018-11-11T06:27:59.600Z,6.60
2018-11-11T06:30:27.984Z,6.70
2018-11-11T06:32:56.695Z,6.70
2018-11-11T06:35:25.124Z,6.70
2018-11-11T06:37:53.485Z,6.70
2018-11-11T06:40:21.866Z,6.70
2018-11-11T06:42:50.593Z,6.80
2018-11-11T06:45:19.244Z,6.70
2018-11-11T06:47:48.258Z,6.70
2018-11-11T06:50:16.716Z,6.70
2018-11-11T06:52:45.230Z,6.70
2018-11-11T06:55:14.174Z,6.70
2018-11-11T06:57:42.935Z,6.70
2018-11-11T07:00:14.436Z,6.70
2018-11-11T07:02:53.991Z,6.70
2018-11-11T07:05:22.358Z,6.70
2018-11-11T07:07:50.919Z,6.70
2018-11-11T07:10:19.612Z,6.60
2018-11-11T07:12:47.990Z,6.60
2018-11-11T07:15:16.393Z,6.70
2018-11-11T07:17:45.894Z,6.70
2018-11-11T07:20:14.760Z,6.70
2018-11-11T07:22:43.653Z,6.70
2018-11-11T07:25:12.454Z,6.80
2018-11-11T07:27:40.893Z,6.70
2018-11-11T07:30:09.314Z,6.70
2018-11-11T07:32:38.747Z,6.70
2018-11-11T07:35:08.699Z,6.70
2018-11-11T07:37:37.113Z,6.70
2018-11-11T07:40:07.670Z,6.80
2018-11-11T07:42:36.591Z,6.80
2018-11-11T07:45:05.276Z,6.80
2018-11-11T07:47:34.484Z,6.90
2018-11-11T07:50:02.896Z,6.90
2018-11-11T07:52:31.548Z,6.90
2018-11-11T07:55:00.036Z,6.90
2018-11-11T07:57:28.396Z,7.00
2018-11-11T07:59:56.803Z,7.10
2018-11-11T08:02:25.428Z,7.10
2018-11-11T08:04:53.840Z,7.20
2018-11-11T08:07:22.628Z,7.20
2018-11-11T08:09:51.453Z,7.20
2018-11-11T08:12:20.076Z,7.20
2018-11-11T08:14:48.478Z,7.40
2018-11-11T08:17:17.328Z,7.50
2018-11-11T08:19:45.917Z,7.40
2018-11-11T08:22:14.348Z,7.60
2018-11-11T08:24:42.785Z,7.70
2018-11-11T08:27:11.293Z,7.80
2018-11-11T08:29:39.734Z,7.90
2018-11-11T08:32:08.206Z,8.00
2018-11-11T08:34:36.985Z,8.00
2018-11-11T08:37:06.216Z,7.90
2018-11-11T08:39:34.746Z,8.00
2018-11-11T08:42:03.162Z,8.00
2018-11-11T08:44:31.559Z,8.10
2018-11-11T08:47:00.428Z,8.00
2018-11-11T08:49:28.853Z,8.00
2018-11-11T08:51:57.249Z,8.10
2018-11-11T08:54:26.228Z,8.30
2018-11-11T08:56:54.643Z,8.30
2018-11-11T08:59:23.248Z,8.20
2018-11-11T09:01:51.711Z,8.20
2018-11-11T09:04:20.111Z,8.20
2018-11-11T09:06:48.703Z,8.10
2018-11-11T09:09:17.124Z,8.00
2018-11-11T09:11:45.564Z,8.00
2018-11-11T09:14:14.360Z,8.10
2018-11-11T09:16:42.746Z,8.20
2018-11-11T09:19:11.165Z,8.20
2018-11-11T09:21:40.467Z,8.30
2018-11-11T09:24:09.276Z,8.40
2018-11-11T09:26:37.994Z,8.50
2018-11-11T09:29:07.025Z,8.40
2018-11-11T09:31:35.953Z,8.40
2018-11-11T09:34:04.442Z,8.50
2018-11-11T09:36:33.255Z,8.60
2018-11-11T09:39:01.700Z,8.60
2018-11-11T09:41:30.336Z,8.60
2018-11-11T09:43:58.783Z,8.60
2018-11-11T09:46:28.353Z,8.60
2018-11-11T09:48:56.746Z,8.60
2018-11-11T09:51:25.318Z,8.70
2018-11-11T09:53:53.798Z,8.70
2018-11-11T09:56:22.420Z,9.10
2018-11-11T09:58:51.447Z,9.90
2018-11-11T10:01:20.755Z,10.90
2018-11-11T10:04:09.906Z,11.60
2018-11-11T10:06:43.554Z,12.20
2018-11-11T10:09:21.632Z,11.70
2018-11-11T10:13:59.672Z,11.60
2018-11-11T10:17:02.414Z,11.60
2018-11-11T10:19:36.840Z,12.10
2018-11-11T10:22:11.507Z,12.20
2018-11-11T10:24:46.560Z,12.60
2018-11-11T10:27:22.379Z,12.90
2018-11-11T10:30:09.624Z,12.30
2018-11-11T10:32:56.387Z,12.30
2018-11-11T10:35:34.168Z,11.80
2018-11-11T10:38:06.927Z,12.00
2018-11-11T10:42:45.343Z,11.80
2018-11-11T10:45:18.437Z,11.50
2018-11-11T10:47:52.623Z,11.80
2018-11-11T10:50:24.189Z,11.60
2018-11-11T10:52:52.596Z,11.20
2018-11-11T10:55:21.130Z,11.10
2018-11-11T10:57:49.803Z,11.10
2018-11-11T11:00:23.639Z,11.00
2018-11-11T11:02:56.413Z,11.30
2018-11-11T11:05:24.868Z,11.40
2018-11-11T11:07:53.972Z,11.50
2018-11-11T11:10:22.494Z,11.40
2018-11-11T11:12:51.292Z,11.30
2018-11-11T11:15:20.721Z,11.30
2018-11-11T11:17:49.200Z,11.30
2018-11-11T11:20:17.761Z,11.40
2018-11-11T11:22:46.270Z,11.20
2018-11-11T11:25:14.721Z,11.20
2018-11-11T11:27:43.140Z,11.40
2018-11-11T11:30:13.079Z,11.70
2018-11-11T11:32:41.564Z,11.70
2018-11-11T11:35:10.841Z,11.80
2018-11-11T11:37:40.271Z,12.10
2018-11-11T11:40:09.866Z,12.30
2018-11-11T11:42:39.039Z,12.20
2018-11-11T11:45:09.138Z,12.20
2018-11-11T11:47:38.470Z,12.40
2018-11-11T11:50:08.866Z,12.50
2018-11-11T11:52:37.497Z,12.50
2018-11-11T11:55:06.827Z,12.40
2018-11-11T11:57:35.224Z,12.60
2018-11-11T12:00:04.229Z,12.80
2018-11-11T12:02:32.670Z,13.00
2018-11-11T12:05:01.178Z,13.30
2018-11-11T12:07:29.606Z,13.20
2018-11-11T12:09:58.600Z,13.50
2018-11-11T12:12:26.986Z,13.50
2018-11-11T12:14:55.620Z,13.00
2018-11-11T12:17:24.015Z,12.50
2018-11-11T12:19:52.755Z,12.40
2018-11-11T12:22:21.268Z,12.40
2018-11-11T12:24:50.266Z,12.40
2018-11-11T12:27:19.172Z,12.40
2018-11-11T12:29:47.764Z,12.40
2018-11-11T12:32:16.613Z,12.50
2018-11-11T12:34:45.189Z,12.70
2018-11-11T12:37:13.694Z,12.90
2018-11-11T12:39:42.191Z,13.20
2018-11-11T12:42:10.619Z,13.40
2018-11-11T12:44:39.562Z,13.50
2018-11-11T12:47:08.275Z,13.40
2018-11-11T12:49:36.666Z,13.50
2018-11-11T12:52:05.838Z,13.60
2018-11-11T12:54:34.283Z,13.50
2018-11-11T12:57:03.076Z,13.50
2018-11-11T12:59:31.658Z,13.40
2018-11-11T13:02:00.708Z,13.40
2018-11-11T13:04:29.582Z,13.60
2018-11-11T13:06:57.949Z,13.70
2018-11-11T13:09:26.763Z,13.70
2018-11-11T13:11:55.456Z,13.70
2018-11-11T13:14:24.000Z,13.50
2018-11-11T13:16:52.542Z,13.50
2018-11-11T13:19:21.464Z,13.60
2018-11-11T13:21:49.877Z,13.50
2018-11-11T13:24:18.798Z,13.50
2018-11-11T13:26:47.265Z,13.60
2018-11-11T13:29:15.672Z,13.30
2018-11-11T13:31:44.135Z,13.40
2018-11-11T13:34:13.290Z,13.40
2018-11-11T13:36:41.660Z,13.40
2018-11-11T13:39:12.337Z,13.30
2018-11-11T13:41:41.388Z,13.20
2018-11-11T13:44:10.384Z,12.90
2018-11-11T13:46:40.533Z,12.80
2018-11-11T13:49:08.800Z,12.80
2018-11-11T13:51:38.142Z,13.00
2018-11-11T13:54:07.309Z,13.20
2018-11-11T13:56:37.280Z,13.50
2018-11-11T13:59:06.273Z,13.80
2018-11-11T14:01:35.019Z,14.00
2018-11-11T14:04:03.628Z,14.00
2018-11-11T14:06:32.632Z,13.90
2018-11-11T14:09:01.046Z,13.90
2018-11-11T14:11:30.047Z,13.90
2018-11-11T14:13:58.896Z,13.90
2018-11-11T14:16:27.417Z,13.90
2018-11-11T14:18:56.109Z,13.80
2018-11-11T14:21:24.268Z,13.70
2018-11-11T14:23:53.165Z,13.60
2018-11-11T14:26:21.925Z,13.50
2018-11-11T14:28:50.267Z,13.50
2018-11-11T14:31:19.138Z,13.40
2018-11-11T14:33:48.273Z,13.50
2018-11-11T14:36:17.350Z,13.70
2018-11-11T14:38:45.777Z,13.70
2018-11-11T14:41:14.190Z,13.70
2018-11-11T14:43:42.621Z,13.50
2018-11-11T14:46:11.366Z,13.30
2018-11-11T14:48:39.780Z,13.20
2018-11-11T14:51:08.656Z,13.00
2018-11-11T14:53:37.091Z,12.70
2018-11-11T14:56:06.396Z,12.60
2018-11-11T14:58:34.961Z,12.50
2018-11-11T15:01:03.259Z,12.40
2018-11-11T15:03:32.140Z,12.30
2018-11-11T15:06:00.948Z,12.20
2018-11-11T15:08:29.508Z,12.20
2018-11-11T15:10:58.207Z,12.10
2018-11-11T15:13:26.901Z,12.00
2018-11-11T15:15:55.556Z,11.90
2018-11-11T15:18:23.967Z,11.80
2018-11-11T15:20:52.996Z,11.70
2018-11-11T15:23:21.298Z,11.60
2018-11-11T15:25:49.710Z,11.40
2018-11-11T15:28:18.127Z,11.30
2018-11-11T15:30:47.101Z,11.20
2018-11-11T15:33:16.064Z,11.10
2018-11-11T15:35:44.758Z,11.00
2018-11-11T15:38:13.158Z,10.80
2018-11-11T15:40:41.598Z,10.70
2018-11-11T15:43:10.181Z,10.60
2018-11-11T15:45:38.587Z,10.50
2018-11-11T15:48:08.111Z,10.30
2018-11-11T15:50:37.120Z,10.20
2018-11-11T15:53:07.396Z,10.10
2018-11-11T15:55:37.569Z,10.00
2018-11-11T15:58:06.600Z,9.90
2018-11-11T16:00:36.508Z,9.80
2018-11-11T16:03:05.465Z,9.70
2018-11-11T16:05:34.770Z,9.70
2018-11-11T16:08:04.058Z,9.60
2018-11-11T16:10:33.465Z,9.50
2018-11-11T16:13:02.107Z,9.50
2018-11-11T16:15:34.092Z,9.40
2018-11-11T16:18:06.106Z,9.30
2018-11-11T16:20:35.167Z,9.30
2018-11-11T16:23:05.441Z,9.20
2018-11-11T16:25:34.951Z,9.20
2018-11-11T16:28:03.689Z,9.10
2018-11-11T16:30:33.436Z,9.00
2018-11-11T16:33:02.479Z,9.00
2018-11-11T16:35:31.759Z,8.90
2018-11-11T16:38:00.880Z,8.90
2018-11-11T16:40:31.891Z,8.80
2018-11-11T16:43:01.329Z,8.70
2018-11-11T16:45:31.745Z,8.70
2018-11-11T16:48:00.885Z,8.60
2018-11-11T16:50:32.306Z,8.70
2018-11-11T16:53:05.457Z,8.60
2018-11-11T16:55:35.505Z,8.60
2018-11-11T16:58:04.423Z,8.50
2018-11-11T17:00:35.210Z,8.50
2018-11-11T17:03:04.679Z,8.40
2018-11-11T17:05:34.464Z,8.30
2018-11-11T17:08:02.889Z,8.30
2018-11-11T17:10:33.457Z,8.30
2018-11-11T17:13:04.912Z,8.20
2018-11-11T17:15:34.105Z,8.20
2018-11-11T17:18:03.182Z,8.10
2018-11-11T17:20:31.686Z,8.10
2018-11-11T17:23:02.055Z,8.00
2018-11-11T17:25:30.782Z,8.00
2018-11-11T17:27:59.710Z,7.90
2018-11-11T17:30:29.416Z,7.90
2018-11-11T17:32:58.875Z,7.90
2018-11-11T17:35:27.316Z,7.80
2018-11-11T17:37:55.735Z,7.80
2018-11-11T17:40:26.942Z,7.70
2018-11-11T17:42:56.013Z,7.70
2018-11-11T17:45:24.835Z,7.60
2018-11-11T17:47:54.174Z,7.50
2018-11-11T17:50:24.758Z,7.50
2018-11-11T17:52:53.244Z,7.40
2018-11-11T17:55:22.956Z,7.40
2018-11-11T17:57:51.781Z,7.40
2018-11-11T18:00:22.380Z,7.30
2018-11-11T18:02:51.379Z,7.30
2018-11-11T18:05:21.736Z,7.30
2018-11-11T18:07:50.154Z,7.20
2018-11-11T18:10:20.097Z,7.20
2018-11-11T18:12:48.725Z,7.20
2018-11-11T18:15:22.280Z,7.20
2018-11-11T18:17:50.736Z,7.20
2018-11-11T18:20:20.942Z,7.10
2018-11-11T18:22:50.453Z,7.10
2018-11-11T18:25:18.949Z,7.00
2018-11-11T18:27:47.556Z,7.00
2018-11-11T18:30:18.978Z,7.00
2018-11-11T18:32:47.604Z,6.90
2018-11-11T18:35:17.372Z,6.90
2018-11-11T18:37:46.017Z,6.90
2018-11-11T18:40:16.581Z,6.80
2018-11-11T18:42:45.666Z,6.80
2018-11-11T18:45:15.672Z,6.80
2018-11-11T18:47:44.580Z,6.70
2018-11-11T18:50:16.957Z,6.60
2018-11-11T18:52:45.637Z,6.60
2018-11-11T18:55:14.588Z,6.60
2018-11-11T18:57:43.844Z,6.60
2018-11-11T19:00:30.590Z,6.50
2018-11-11T19:03:00.039Z,6.50
2018-11-11T19:05:29.227Z,6.50
2018-11-11T19:07:58.112Z,6.40
2018-11-11T19:10:29.403Z,6.40
2018-11-11T19:13:00.859Z,6.40
2018-11-11T19:15:29.362Z,6.30
2018-11-11T19:17:57.849Z,6.30
2018-11-11T19:20:27.032Z,6.20
2018-11-11T19:22:56.179Z,6.20
2018-11-11T19:25:28.426Z,6.10
2018-11-11T19:27:58.130Z,6.10
2018-11-11T19:30:27.753Z,6.10
2018-11-11T19:32:56.540Z,6.10
2018-11-11T19:35:25.124Z,6.10
2018-11-11T19:37:55.036Z,6.20
2018-11-11T19:40:25.291Z,6.20
2018-11-11T19:42:56.180Z,6.20
2018-11-11T19:45:25.800Z,6.20
2018-11-11T19:47:54.265Z,6.20
2018-11-11T19:50:24.635Z,6.20
2018-11-11T19:52:54.144Z,6.10
2018-11-11T19:55:23.731Z,6.10
2018-11-11T19:57:52.682Z,6.10
2018-11-11T20:00:23.608Z,6.10
2018-11-11T20:02:53.594Z,6.10
2018-11-11T20:05:23.130Z,6.10
2018-11-11T20:07:53.982Z,6.10
2018-11-11T20:10:23.619Z,6.00
2018-11-11T20:12:52.340Z,6.00
2018-11-11T20:15:22.853Z,6.00
2018-11-11T20:17:51.508Z,6.00
2018-11-11T20:20:22.201Z,6.00
2018-11-11T20:22:51.174Z,6.00
2018-11-11T20:25:20.622Z,6.00
2018-11-11T20:27:49.536Z,5.90
2018-11-11T20:30:25.992Z,5.90
2018-11-11T20:32:54.801Z,5.90
2018-11-11T20:47:42.330Z,5.40
2018-11-11T20:50:14.518Z,6.10
2018-11-11T20:52:44.343Z,6.10
2018-11-11T20:55:13.422Z,6.10
2018-11-11T20:57:42.612Z,6.10
2018-11-11T21:00:14.548Z,6.20
2018-11-11T21:02:43.385Z,6.10
2018-11-11T21:05:13.713Z,6.10
2018-11-11T21:07:42.423Z,6.10
2018-11-11T21:10:16.804Z,6.00
2018-11-11T21:12:46.006Z,6.00
2018-11-11T21:15:16.323Z,5.90
2018-11-11T21:17:45.293Z,5.90
2018-11-11T21:20:15.381Z,5.80
2018-11-11T21:22:44.024Z,5.80
2018-11-11T21:25:13.126Z,5.70
2018-11-11T21:27:42.736Z,5.70
2018-11-11T21:30:16.343Z,5.70
2018-11-11T21:32:45.108Z,5.60
2018-11-11T21:35:13.774Z,5.60
2018-11-11T21:37:42.911Z,5.50
2018-11-11T21:40:14.280Z,5.40
2018-11-11T21:42:43.425Z,5.40
2018-11-11T21:45:14.798Z,5.40
2018-11-11T21:47:44.390Z,5.40
2018-11-11T21:50:16.435Z,5.50
2018-11-11T21:52:50.873Z,5.50
2018-11-11T21:55:19.678Z,5.60
2018-11-11T21:57:48.209Z,5.60
2018-11-11T22:00:16.626Z,5.60
2018-11-11T22:02:46.042Z,5.60
2018-11-11T22:05:15.052Z,5.70
2018-11-11T22:07:43.613Z,5.60
2018-11-11T22:10:13.796Z,5.60
2018-11-11T22:12:42.221Z,5.60
2018-11-11T22:15:12.282Z,5.60
2018-11-11T22:17:41.954Z,5.50
2018-11-11T22:20:11.291Z,5.50
2018-11-11T22:22:40.758Z,5.50
2018-11-11T22:25:09.391Z,5.40
2018-11-11T22:27:38.013Z,5.40
2018-11-11T22:30:13.732Z,5.40
